Time;durP1;ratioP1;P1;durP2;ratioP2;P2;SDS_P1;SDS_P2;PMS_P1;PMS_P2;Temp;Humidity;BMP_temperature;BMP_pressure;BME280_temperature;BME280_humidity;BME280_pressure;Samples;Min_cycle;Max_cycle;Signal;HPM_P1;HPM_P2
2023/08/01 00:02:11;;;;;;;4.20;2.30;;;;;;;;;;5017291;28;20041;-65
2023/08/01 00:04:37;;;;;;;2.70;1.45;;;;;;;;;;5015200;28;20486;-65
2023/08/01 00:07:03;;;;;;;2.85;1.98;;;;;;;;;;5022703;28;20041;-65
2023/08/01 00:09:29;;;;;;;2.60;1.73;;;;;;;;;;5019690;28;20033;-65
2023/08/01 00:11:55;;;;;;;2.15;1.75;;;;;;;;;;5018262;28;20040;-65
2023/08/01 00:14:24;;;;;;;2.72;1.80;;;;;;;;;;5013206;28;20100;-65
2023/08/01 00:16:50;;;;;;;2.88;1.70;;;;;;;;;;5019054;28;20507;-65
2023/08/01 00:19:16;;;;;;;3.67;1.95;;;;;;;;;;5017529;28;20037;-65
2023/08/01 00:21:42;;;;;;;2.45;1.73;;;;;;;;;;5012576;28;20660;-65
2023/08/01 00:24:08;;;;;;;2.00;1.75;;;;;;;;;;5015729;28;20041;-65
2023/08/01 00:26:34;;;;;;;1.70;1.45;;;;;;;;;;5014987;28;20103;-65
2023/08/01 00:29:00;;;;;;;2.00;1.48;;;;;;;;;;5014325;28;20129;-65
2023/08/01 00:31:26;;;;;;;1.45;1.35;;;;;;;;;;5014456;28;20041;-65
2023/08/01 00:33:52;;;;;;;3.03;2.00;;;;;;;;;;5014937;28;20037;-65
2023/08/01 00:36:18;;;;;;;2.10;1.50;;;;;;;;;;5011626;28;20037;-65
2023/08/01 00:38:44;;;;;;;3.70;1.65;;;;;;;;;;5013740;28;20229;-65
2023/08/01 00:41:11;;;;;;;2.95;1.95;;;;;;;;;;5010626;28;20049;-65
2023/08/01 00:43:37;;;;;;;1.70;1.48;;;;;;;;;;5015206;28;20037;-65
2023/08/01 00:46:04;;;;;;;1.83;1.73;;;;;;;;;;5014094;28;20666;-65
2023/08/01 00:48:30;;;;;;;1.75;1.30;;;;;;;;;;5014543;28;20069;-65
2023/08/01 00:51:00;;;;;;;1.63;1.38;;;;;;;;;;5014567;28;20049;-65
2023/08/01 00:53:26;;;;;;;1.40;1.30;;;;;;;;;;5014061;28;20049;-65
2023/08/01 00:55:53;;;;;;;1.52;1.42;;;;;;;;;;5016333;28;20050;-65
2023/08/01 00:58:19;;;;;;;2.22;1.42;;;;;;;;;;5012244;28;20754;-65
2023/08/01 01:00:46;;;;;;;1.65;1.50;;;;;;;;;;5013348;28;20076;-65
2023/08/01 01:03:12;;;;;;;1.33;1.23;;;;;;;;;;5014332;28;20090;-65
2023/08/01 01:05:41;;;;;;;2.33;1.38;;;;;;;;;;5012682;28;20053;-65
2023/08/01 01:08:07;;;;;;;1.33;1.20;;;;;;;;;;5009643;28;20262;-65
2023/08/01 01:10:33;;;;;;;1.45;1.33;;;;;;;;;;5013002;28;20399;-65
2023/08/01 01:12:59;;;;;;;1.30;1.20;;;;;;;;;;5013656;28;20495;-65
2023/08/01 01:15:25;;;;;;;1.52;1.30;;;;;;;;;;5013827;28;20041;-65
2023/08/01 01:17:52;;;;;;;2.08;1.30;;;;;;;;;;5012234;28;20033;-65
2023/08/01 01:20:24;;;;;;;1.23;1.10;;;;;;;;;;5018038;28;20087;-65
2023/08/01 01:22:52;;;;;;;2.05;1.73;;;;;;;;;;5016623;28;20044;-65
2023/08/01 01:25:18;;;;;;;1.42;1.33;;;;;;;;;;5012495;28;20472;-65
2023/08/01 01:27:45;;;;;;;1.20;0.90;;;;;;;;;;5015406;28;20085;-65
2023/08/01 01:30:11;;;;;;;1.17;1.08;;;;;;;;;;5021408;28;20052;-65
2023/08/01 01:32:37;;;;;;;0.90;0.80;;;;;;;;;;5016889;28;20548;-65
2023/08/01 01:35:04;;;;;;;2.15;0.77;;;;;;;;;;5011128;28;20037;-65
2023/08/01 01:37:30;;;;;;;1.20;1.00;;;;;;;;;;5009795;28;20042;-65
2023/08/01 01:39:56;;;;;;;1.20;1.00;;;;;;;;;;5012765;28;20088;-65
2023/08/01 01:42:22;;;;;;;2.53;1.33;;;;;;;;;;5014984;28;20041;-65
2023/08/01 01:44:48;;;;;;;1.08;0.95;;;;;;;;;;5019033;28;20046;-65
2023/08/01 01:47:14;;;;;;;0.70;0.70;;;;;;;;;;5012457;28;20057;-65
2023/08/01 01:49:40;;;;;;;1.05;0.75;;;;;;;;;;5011940;28;20037;-65
2023/08/01 01:52:06;;;;;;;0.60;0.57;;;;;;;;;;5011506;28;20498;-65
2023/08/01 01:54:32;;;;;;;0.90;0.70;;;;;;;;;;5010175;28;20081;-65
2023/08/01 01:56:58;;;;;;;0.70;0.63;;;;;;;;;;5011664;28;20072;-65
2023/08/01 01:59:24;;;;;;;2.15;0.70;;;;;;;;;;5008898;28;20734;-65
2023/08/01 02:01:50;;;;;;;0.68;0.60;;;;;;;;;;5009465;28;20081;-65
2023/08/01 02:04:18;;;;;;;0.85;0.85;;;;;;;;;;5013513;28;20080;-65
2023/08/01 02:06:44;;;;;;;1.88;0.85;;;;;;;;;;5012055;28;20045;-65
2023/08/01 02:09:10;;;;;;;0.50;0.50;;;;;;;;;;5010766;28;20488;-65
2023/08/01 02:11:36;;;;;;;0.68;0.63;;;;;;;;;;5009918;28;20041;-65
2023/08/01 02:14:02;;;;;;;0.68;0.68;;;;;;;;;;5012990;28;20080;-65
2023/08/01 02:16:29;;;;;;;0.77;0.57;;;;;;;;;;5009097;28;20506;-65
2023/08/01 02:18:55;;;;;;;0.75;0.40;;;;;;;;;;5012183;28;20076;-65
2023/08/01 02:21:21;;;;;;;0.50;0.43;;;;;;;;;;5010842;28;20037;-65
2023/08/01 02:23:47;;;;;;;1.00;0.90;;;;;;;;;;5012763;28;20049;-65
2023/08/01 02:26:13;;;;;;;2.67;1.00;;;;;;;;;;5019019;28;20395;-65
2023/08/01 02:28:39;;;;;;;0.88;0.70;;;;;;;;;;5017923;28;20042;-65
2023/08/01 02:31:05;;;;;;;1.40;0.82;;;;;;;;;;5019984;28;20037;-65
2023/08/01 02:33:31;;;;;;;1.00;0.63;;;;;;;;;;5017976;28;20128;-65
2023/08/01 02:35:57;;;;;;;1.05;0.90;;;;;;;;;;5014238;28;20534;-65
2023/08/01 02:38:23;;;;;;;1.98;0.75;;;;;;;;;;5009673;28;20045;-65
2023/08/01 02:40:49;;;;;;;0.68;0.68;;;;;;;;;;5014602;28;20045;-65
2023/08/01 02:43:15;;;;;;;1.10;1.00;;;;;;;;;;5012531;28;20045;-65
2023/08/01 02:45:42;;;;;;;1.23;1.00;;;;;;;;;;5011049;28;20065;-65
2023/08/01 02:48:08;;;;;;;0.70;0.70;;;;;;;;;;5007911;28;20049;-65
2023/08/01 02:50:34;;;;;;;1.17;0.75;;;;;;;;;;5009709;28;20046;-65
2023/08/01 02:53:00;;;;;;;0.90;0.90;;;;;;;;;;5014096;28;20058;-65
2023/08/01 02:55:26;;;;;;;2.05;1.23;;;;;;;;;;5008299;28;20060;-65
2023/08/01 02:57:52;;;;;;;1.40;1.30;;;;;;;;;;5014299;28;20052;-65
2023/08/01 03:00:18;;;;;;;1.50;1.08;;;;;;;;;;5016729;28;20034;-65
2023/08/01 03:02:44;;;;;;;3.80;1.20;;;;;;;;;;5018931;28;20080;-65
2023/08/01 03:05:10;;;;;;;2.70;1.02;;;;;;;;;;5016916;28;20033;-65
2023/08/01 03:07:36;;;;;;;1.05;0.95;;;;;;;;;;5018093;28;20045;-65
2023/08/01 03:10:02;;;;;;;2.05;1.17;;;;;;;;;;5013965;28;20046;-65
2023/08/01 03:12:28;;;;;;;1.20;1.10;;;;;;;;;;5013453;28;20045;-65
2023/08/01 03:14:54;;;;;;;1.42;1.15;;;;;;;;;;5015805;28;20083;-65
2023/08/01 03:17:20;;;;;;;1.58;1.33;;;;;;;;;;5013352;28;20038;-65
2023/08/01 03:19:46;;;;;;;1.42;1.10;;;;;;;;;;5017610;28;20624;-65
2023/08/01 03:22:12;;;;;;;1.50;1.00;;;;;;;;;;5019154;28;20049;-65
2023/08/01 03:24:38;;;;;;;1.15;0.80;;;;;;;;;;5018353;28;20042;-65
2023/08/01 03:27:04;;;;;;;1.58;0.90;;;;;;;;;;5021056;28;20077;-65
2023/08/01 03:29:30;;;;;;;2.20;1.25;;;;;;;;;;5022408;28;20149;-65
2023/08/01 03:31:56;;;;;;;1.58;1.48;;;;;;;;;;5022595;28;20102;-65
2023/08/01 03:34:22;;;;;;;2.97;1.70;;;;;;;;;;5019384;28;20099;-65
2023/08/01 03:36:48;;;;;;;1.88;1.77;;;;;;;;;;5013725;28;20075;-65
2023/08/01 03:39:15;;;;;;;1.92;1.63;;;;;;;;;;5014812;28;20129;-65
2023/08/01 03:41:41;;;;;;;2.20;1.58;;;;;;;;;;5014398;28;20041;-65
2023/08/01 03:44:07;;;;;;;2.40;1.58;;;;;;;;;;5013374;28;20042;-65
2023/08/01 03:46:33;;;;;;;1.77;1.00;;;;;;;;;;5012097;28;20038;-65
2023/08/01 03:48:59;;;;;;;2.53;1.10;;;;;;;;;;5017520;28;20060;-65
2023/08/01 03:51:25;;;;;;;1.05;0.90;;;;;;;;;;5019244;28;20041;-65
2023/08/01 03:53:51;;;;;;;1.33;0.70;;;;;;;;;;5014805;28;20558;-65
2023/08/01 03:56:17;;;;;;;0.85;0.65;;;;;;;;;;5015585;28;20132;-65
2023/08/01 03:58:43;;;;;;;0.88;0.57;;;;;;;;;;5014109;28;20112;-65
2023/08/01 04:01:09;;;;;;;1.00;0.88;;;;;;;;;;5014598;28;20750;-65
2023/08/01 04:03:35;;;;;;;1.20;0.65;;;;;;;;;;5014353;28;20053;-65
2023/08/01 04:06:01;;;;;;;1.10;0.70;;;;;;;;;;5014970;28;20037;-65
2023/08/01 04:08:27;;;;;;;0.55;0.55;;;;;;;;;;5014217;28;20045;-65
2023/08/01 04:10:53;;;;;;;0.85;0.65;;;;;;;;;;5011580;28;20395;-65
2023/08/01 04:13:19;;;;;;;1.42;0.70;;;;;;;;;;5014799;28;20041;-65
2023/08/01 04:15:45;;;;;;;1.05;0.82;;;;;;;;;;5015641;28;20045;-65
2023/08/01 04:18:11;;;;;;;0.73;0.63;;;;;;;;;;5016501;28;20507;-65
2023/08/01 04:20:37;;;;;;;0.60;0.57;;;;;;;;;;5016267;28;20041;-65
2023/08/01 04:23:03;;;;;;;0.55;0.40;;;;;;;;;;5017561;28;20048;-65
2023/08/01 04:25:29;;;;;;;0.82;0.60;;;;;;;;;;5019808;28;20048;-65
2023/08/01 04:27:55;;;;;;;0.80;0.40;;;;;;;;;;5019587;28;20124;-65
2023/08/01 04:30:21;;;;;;;0.30;0.30;;;;;;;;;;5019576;28;20132;-65
2023/08/01 04:32:47;;;;;;;0.43;0.32;;;;;;;;;;5017831;28;20041;-65
2023/08/01 04:35:13;;;;;;;1.58;0.80;;;;;;;;;;5013795;28;20040;-65
2023/08/01 04:37:39;;;;;;;0.68;0.57;;;;;;;;;;5014817;28;20041;-65
2023/08/01 04:40:05;;;;;;;0.70;0.50;;;;;;;;;;5014774;28;20172;-65
2023/08/01 04:42:31;;;;;;;2.35;0.85;;;;;;;;;;5012006;28;20140;-65
2023/08/01 04:44:57;;;;;;;0.40;0.40;;;;;;;;;;5014273;28;20180;-65
2023/08/01 04:47:24;;;;;;;0.77;0.30;;;;;;;;;;5017888;28;20042;-65
2023/08/01 04:49:50;;;;;;;2.25;0.70;;;;;;;;;;5016424;28;20049;-65
2023/08/01 04:52:16;;;;;;;1.38;0.50;;;;;;;;;;5015449;28;20065;-65
2023/08/01 04:54:42;;;;;;;1.27;0.60;;;;;;;;;;5013223;28;20065;-65
2023/08/01 04:57:08;;;;;;;1.98;0.68;;;;;;;;;;5014334;28;20042;-65
2023/08/01 04:59:34;;;;;;;1.23;0.57;;;;;;;;;;5016111;28;20042;-65
2023/08/01 05:02:00;;;;;;;0.60;0.60;;;;;;;;;;5012701;28;20076;-65
2023/08/01 05:04:26;;;;;;;0.77;0.40;;;;;;;;;;5015823;28;20398;-65
2023/08/01 05:06:52;;;;;;;0.85;0.52;;;;;;;;;;5014682;28;20034;-65
2023/08/01 05:09:18;;;;;;;1.00;0.70;;;;;;;;;;5012315;28;20107;-65
2023/08/01 05:11:44;;;;;;;1.00;0.60;;;;;;;;;;5013250;28;20048;-65
2023/08/01 05:14:10;;;;;;;3.42;0.90;;;;;;;;;;5014417;28;20655;-65
2023/08/01 05:16:36;;;;;;;1.63;0.70;;;;;;;;;;5012122;28;20049;-65
2023/08/01 05:19:02;;;;;;;0.57;0.50;;;;;;;;;;5010145;28;20034;-65
2023/08/01 05:21:28;;;;;;;1.35;0.70;;;;;;;;;;5012507;28;20116;-65
2023/08/01 05:23:54;;;;;;;1.75;0.60;;;;;;;;;;5015214;28;20041;-65
2023/08/01 05:26:20;;;;;;;1.83;0.80;;;;;;;;;;5013122;28;20622;-65
2023/08/01 05:28:46;;;;;;;1.25;0.85;;;;;;;;;;5014345;28;20048;-65
2023/08/01 05:31:12;;;;;;;1.38;0.90;;;;;;;;;;5015637;28;20069;-65
2023/08/01 05:33:38;;;;;;;1.90;1.05;;;;;;;;;;5011816;28;20077;-65
2023/08/01 05:36:05;;;;;;;1.20;0.80;;;;;;;;;;5012026;28;20074;-65
2023/08/01 05:38:31;;;;;;;1.20;1.02;;;;;;;;;;5016114;28;20062;-65
2023/08/01 05:40:57;;;;;;;3.10;1.45;;;;;;;;;;5015609;28;20761;-65
2023/08/01 05:43:23;;;;;;;2.80;1.25;;;;;;;;;;5011666;28;20042;-65
2023/08/01 05:45:49;;;;;;;1.45;0.80;;;;;;;;;;5011082;28;20049;-65
2023/08/01 05:48:15;;;;;;;1.05;0.80;;;;;;;;;;5014028;28;20487;-65
2023/08/01 05:50:41;;;;;;;1.67;0.80;;;;;;;;;;5010154;28;20567;-65
2023/08/01 05:53:07;;;;;;;1.55;0.85;;;;;;;;;;5016285;28;20053;-65
2023/08/01 05:55:33;;;;;;;0.90;0.80;;;;;;;;;;5012142;28;20042;-65
2023/08/01 05:58:00;;;;;;;0.90;0.70;;;;;;;;;;5014494;28;20051;-65
2023/08/01 06:00:26;;;;;;;0.40;0.40;;;;;;;;;;5012156;28;20041;-65
2023/08/01 06:02:52;;;;;;;0.50;0.50;;;;;;;;;;5012487;28;20033;-65
2023/08/01 06:05:18;;;;;;;1.17;0.70;;;;;;;;;;5013837;28;20454;-65
2023/08/01 06:07:44;;;;;;;1.98;0.90;;;;;;;;;;5011809;28;20046;-65
2023/08/01 06:10:10;;;;;;;0.98;0.70;;;;;;;;;;5008799;28;20046;-65
2023/08/01 06:12:36;;;;;;;1.88;0.73;;;;;;;;;;5011777;28;20037;-65
2023/08/01 06:15:02;;;;;;;0.80;0.80;;;;;;;;;;5010786;28;20173;-65
2023/08/01 06:17:28;;;;;;;0.70;0.70;;;;;;;;;;5014490;28;20033;-65
2023/08/01 06:19:54;;;;;;;2.45;1.13;;;;;;;;;;5012936;28;20137;-65
2023/08/01 06:22:20;;;;;;;1.67;0.95;;;;;;;;;;5007392;28;20978;-65
2023/08/01 06:24:46;;;;;;;1.00;0.73;;;;;;;;;;5014689;28;20042;-65
2023/08/01 06:27:14;;;;;;;5.10;1.27;;;;;;;;;;5014709;28;20037;-65
2023/08/01 06:29:40;;;;;;;1.75;0.85;;;;;;;;;;5011881;28;20092;-65
2023/08/01 06:32:07;;;;;;;0.70;0.50;;;;;;;;;;5013310;28;20046;-65
2023/08/01 06:34:33;;;;;;;1.70;0.77;;;;;;;;;;5017994;28;20079;-65
2023/08/01 06:36:59;;;;;;;1.75;1.08;;;;;;;;;;5017236;28;20492;-65
2023/08/01 06:39:25;;;;;;;1.05;0.70;;;;;;;;;;5016752;28;20045;-65
2023/08/01 06:41:51;;;;;;;1.33;0.90;;;;;;;;;;5016950;28;20044;-65
2023/08/01 06:44:17;;;;;;;1.20;0.70;;;;;;;;;;5017465;28;20041;-65
2023/08/01 06:46:43;;;;;;;0.93;0.57;;;;;;;;;;5022898;28;20037;-65
2023/08/01 06:49:09;;;;;;;0.93;0.60;;;;;;;;;;5015994;28;20045;-65
2023/08/01 06:51:35;;;;;;;0.88;0.70;;;;;;;;;;5011529;28;20033;-65
2023/08/01 06:54:01;;;;;;;0.50;0.50;;;;;;;;;;5017329;28;20053;-65
2023/08/01 06:56:27;;;;;;;1.08;0.80;;;;;;;;;;5012884;28;20498;-65
2023/08/01 06:58:53;;;;;;;1.67;0.60;;;;;;;;;;5015409;28;20042;-65
2023/08/01 07:01:19;;;;;;;0.50;0.47;;;;;;;;;;5020765;28;20047;-65
2023/08/01 07:03:45;;;;;;;1.08;0.55;;;;;;;;;;5020400;28;20051;-65
2023/08/01 07:06:11;;;;;;;0.80;0.50;;;;;;;;;;5020018;28;20059;-65
2023/08/01 07:08:37;;;;;;;0.65;0.30;;;;;;;;;;5019627;28;20481;-65
2023/08/01 07:11:03;;;;;;;1.40;0.63;;;;;;;;;;5019099;28;20116;-65
2023/08/01 07:13:29;;;;;;;1.00;0.30;;;;;;;;;;5018207;28;20051;-65
2023/08/01 07:15:55;;;;;;;1.42;0.52;;;;;;;;;;5011628;28;20041;-65
2023/08/01 07:18:21;;;;;;;0.93;0.52;;;;;;;;;;5022424;28;20414;-65
2023/08/01 07:20:47;;;;;;;1.48;0.63;;;;;;;;;;5014905;28;20048;-65
2023/08/01 07:23:13;;;;;;;1.45;0.80;;;;;;;;;;5014667;28;20048;-65
2023/08/01 07:25:39;;;;;;;2.72;0.52;;;;;;;;;;5012641;28;20065;-65
2023/08/01 07:28:05;;;;;;;3.88;1.08;;;;;;;;;;5015251;28;20080;-65
2023/08/01 07:30:31;;;;;;;5.57;1.27;;;;;;;;;;5011277;28;20070;-65
2023/08/01 07:32:57;;;;;;;3.30;1.10;;;;;;;;;;5017437;28;20167;-65
2023/08/01 07:35:23;;;;;;;2.28;1.00;;;;;;;;;;5020164;28;20534;-65
2023/08/01 07:37:49;;;;;;;1.95;0.50;;;;;;;;;;5013502;28;20042;-65
2023/08/01 07:40:15;;;;;;;4.10;0.85;;;;;;;;;;5010751;28;20045;-65
2023/08/01 07:42:41;;;;;;;0.88;0.43;;;;;;;;;;5017845;28;20052;-65
2023/08/01 07:45:08;;;;;;;2.30;0.80;;;;;;;;;;5015610;28;20042;-65
2023/08/01 07:47:34;;;;;;;3.47;0.65;;;;;;;;;;5016558;28;20596;-65
2023/08/01 07:50:00;;;;;;;1.98;0.85;;;;;;;;;;5021664;28;20049;-65
2023/08/01 07:52:26;;;;;;;2.28;0.57;;;;;;;;;;5016033;28;20046;-65
2023/08/01 07:54:53;;;;;;;1.73;0.63;;;;;;;;;;5013262;28;20054;-65
2023/08/01 07:57:19;;;;;;;1.52;0.60;;;;;;;;;;5016568;28;20049;-65
2023/08/01 07:59:45;;;;;;;3.28;1.23;;;;;;;;;;5014368;28;20411;-65
2023/08/01 08:02:11;;;;;;;5.53;1.10;;;;;;;;;;5010749;28;20103;-65
2023/08/01 08:04:37;;;;;;;1.75;0.88;;;;;;;;;;5012304;28;20045;-62
2023/08/01 08:07:03;;;;;;;1.10;0.80;;;;;;;;;;5012544;28;20041;-60
2023/08/01 08:09:29;;;;;;;2.60;0.98;;;;;;;;;;5016449;28;20079;-63
2023/08/01 08:11:57;;;;;;;1.73;0.95;;;;;;;;;;5008012;28;20408;-61
2023/08/01 08:14:23;;;;;;;1.90;0.70;;;;;;;;;;5010465;28;20045;-62
2023/08/01 08:16:50;;;;;;;3.42;1.02;;;;;;;;;;5020504;28;20049;-64
2023/08/01 08:19:16;;;;;;;0.98;0.60;;;;;;;;;;5011601;28;20554;-64
2023/08/01 08:21:42;;;;;;;2.75;0.70;;;;;;;;;;5015150;28;20041;-63
2023/08/01 08:24:08;;;;;;;0.98;0.50;;;;;;;;;;5014285;28;20077;-63
2023/08/01 08:26:37;;;;;;;0.57;0.40;;;;;;;;;;5014197;28;20064;-63
2023/08/01 08:29:04;;;;;;;0.63;0.38;;;;;;;;;;5017482;28;20048;-63
2023/08/01 08:31:30;;;;;;;2.67;0.50;;;;;;;;;;5014339;28;20043;-64
2023/08/01 08:33:56;;;;;;;1.17;0.30;;;;;;;;;;5017999;28;20095;-64
2023/08/01 08:36:22;;;;;;;0.68;0.50;;;;;;;;;;5011994;28;20037;-63
2023/08/01 08:38:50;;;;;;;1.25;0.73;;;;;;;;;;5019927;28;20045;-63
2023/08/01 08:41:20;;;;;;;0.95;0.50;;;;;;;;;;5019625;28;20126;-64
2023/08/01 08:43:48;;;;;;;1.20;0.60;;;;;;;;;;5015946;28;20424;-64
2023/08/01 08:46:15;;;;;;;1.50;0.57;;;;;;;;;;5014017;28;20399;-64
2023/08/01 08:48:42;;;;;;;1.50;0.40;;;;;;;;;;5020863;28;20049;-64
2023/08/01 08:51:08;;;;;;;0.98;0.55;;;;;;;;;;5015768;28;20052;-64
2023/08/01 08:53:35;;;;;;;2.90;0.55;;;;;;;;;;5015755;28;20056;-64
2023/08/01 08:56:02;;;;;;;1.92;0.73;;;;;;;;;;5016144;28;20090;-63
2023/08/01 08:58:32;;;;;;;0.80;0.50;;;;;;;;;;5012699;28;20099;-64
2023/08/01 09:01:01;;;;;;;1.35;0.60;;;;;;;;;;5008784;28;20124;-64
2023/08/01 09:03:28;;;;;;;2.10;0.88;;;;;;;;;;5012836;28;20464;-63
2023/08/01 09:05:58;;;;;;;1.55;0.90;;;;;;;;;;5013691;28;20046;-63
2023/08/01 09:08:25;;;;;;;1.88;0.85;;;;;;;;;;5012588;28;20107;-63
2023/08/01 09:10:51;;;;;;;1.05;0.80;;;;;;;;;;5009573;28;20053;-63
2023/08/01 09:13:17;;;;;;;1.60;0.88;;;;;;;;;;5019650;28;20047;-64
2023/08/01 09:15:46;;;;;;;2.47;0.70;;;;;;;;;;5019980;28;20384;-64
2023/08/01 09:18:12;;;;;;;1.75;0.68;;;;;;;;;;5017489;28;20068;-63
2023/08/01 09:21:02;;;;;;;1.35;0.73;;;;;;;;;;5015655;28;20046;-64
2023/08/01 09:23:28;;;;;;;2.15;0.75;;;;;;;;;;5020380;28;20045;-63
2023/08/01 09:25:54;;;;;;;1.40;0.60;;;;;;;;;;5018611;28;20041;-63
2023/08/01 09:28:21;;;;;;;0.77;0.40;;;;;;;;;;5010951;28;20049;-63
2023/08/01 09:30:48;;;;;;;0.90;0.40;;;;;;;;;;5016190;28;20168;-64
2023/08/01 09:33:15;;;;;;;1.17;0.50;;;;;;;;;;5013388;28;20034;-64
2023/08/01 09:35:41;;;;;;;0.68;0.40;;;;;;;;;;5015967;28;20111;-64
2023/08/01 09:38:07;;;;;;;0.50;0.43;;;;;;;;;;5010088;28;20034;-64
2023/08/01 09:40:36;;;;;;;0.73;0.60;;;;;;;;;;5013211;28;20072;-64
2023/08/01 09:43:02;;;;;;;1.35;0.57;;;;;;;;;;5016763;28;20049;-64
2023/08/01 09:45:28;;;;;;;2.00;0.63;;;;;;;;;;5013118;28;20038;-64
2023/08/01 09:47:55;;;;;;;1.63;0.55;;;;;;;;;;5013338;28;20072;-64
2023/08/01 09:50:22;;;;;;;0.40;0.35;;;;;;;;;;5015018;28;20559;-64
2023/08/01 09:52:52;;;;;;;1.63;0.52;;;;;;;;;;5009862;28;20834;-63
2023/08/01 09:55:21;;;;;;;1.40;0.77;;;;;;;;;;5015462;28;20069;-64
2023/08/01 09:57:49;;;;;;;1.20;0.60;;;;;;;;;;5017452;28;20080;-63
2023/08/01 10:00:15;;;;;;;2.97;0.75;;;;;;;;;;5013540;28;20053;-63
2023/08/01 10:02:43;;;;;;;1.17;0.65;;;;;;;;;;5012326;28;20045;-64
2023/08/01 10:05:10;;;;;;;1.10;0.50;;;;;;;;;;5012535;28;20038;-63
2023/08/01 10:07:39;;;;;;;2.45;0.70;;;;;;;;;;5014646;28;20116;-63
2023/08/01 10:10:06;;;;;;;0.98;0.40;;;;;;;;;;5021237;28;20099;-63
2023/08/01 10:12:32;;;;;;;0.45;0.40;;;;;;;;;;5020101;28;20038;-64
2023/08/01 10:14:58;;;;;;;1.23;0.40;;;;;;;;;;5018024;28;20037;-64
2023/08/01 10:17:26;;;;;;;0.77;0.30;;;;;;;;;;5015427;28;20141;-64
2023/08/01 10:19:53;;;;;;;1.08;0.50;;;;;;;;;;5017781;28;20499;-64
2023/08/01 10:22:19;;;;;;;1.25;0.45;;;;;;;;;;5020211;28;20568;-64
2023/08/01 10:24:46;;;;;;;2.78;0.68;;;;;;;;;;5018322;28;20049;-64
2023/08/01 10:27:13;;;;;;;1.02;0.60;;;;;;;;;;5016989;28;20057;-64
2023/08/01 10:29:39;;;;;;;1.58;0.60;;;;;;;;;;5013965;28;20053;-64
2023/08/01 10:32:07;;;;;;;2.88;0.80;;;;;;;;;;5016192;28;20486;-64
2023/08/01 10:34:33;;;;;;;1.38;0.60;;;;;;;;;;5012591;28;20049;-64
2023/08/01 10:37:01;;;;;;;4.03;1.13;;;;;;;;;;5015743;28;20038;-64
2023/08/01 10:39:28;;;;;;;1.35;0.73;;;;;;;;;;5019611;28;20041;-64
2023/08/01 10:42:05;;;;;;;4.75;0.98;;;;;;;;;;5017460;28;20037;-64
2023/08/01 10:44:33;;;;;;;2.13;0.80;;;;;;;;;;5011498;28;20049;-64
2023/08/01 10:47:01;;;;;;;0.98;0.40;;;;;;;;;;5015960;28;20040;-64
2023/08/01 10:49:40;;;;;;;0.95;0.60;;;;;;;;;;5011580;28;20042;-65
2023/08/01 10:52:21;;;;;;;3.25;0.80;;;;;;;;;;5014131;28;20048;-65
2023/08/01 10:54:47;;;;;;;1.15;0.52;;;;;;;;;;5009321;28;20089;-65
2023/08/01 10:57:17;;;;;;;0.90;0.52;;;;;;;;;;5007469;28;20455;-65
2023/08/01 10:59:44;;;;;;;1.55;0.90;;;;;;;;;;5009064;28;20164;-64
2023/08/01 11:02:10;;;;;;;3.72;0.73;;;;;;;;;;5008307;28;20046;-64
2023/08/01 11:04:36;;;;;;;2.22;1.00;;;;;;;;;;5010491;28;20129;-64
2023/08/01 11:07:02;;;;;;;2.35;0.70;;;;;;;;;;5008522;28;20480;-64
2023/08/01 11:09:28;;;;;;;4.07;1.13;;;;;;;;;;5007882;28;20037;-64
2023/08/01 11:11:58;;;;;;;0.90;0.60;;;;;;;;;;5007245;28;20037;-64
2023/08/01 11:14:26;;;;;;;1.10;0.60;;;;;;;;;;5019669;28;20099;-65
2023/08/01 11:16:52;;;;;;;1.83;0.60;;;;;;;;;;5024808;28;20099;-65
2023/08/01 11:19:21;;;;;;;1.50;0.60;;;;;;;;;;5023638;28;20041;-65
2023/08/01 11:21:47;;;;;;;1.38;0.50;;;;;;;;;;5022856;28;20119;-65
2023/08/01 11:24:14;;;;;;;1.70;0.60;;;;;;;;;;5018659;28;20571;-64
2023/08/01 11:26:44;;;;;;;1.48;0.82;;;;;;;;;;5012480;28;20046;-64
2023/08/01 11:29:11;;;;;;;2.50;0.82;;;;;;;;;;5015251;28;20050;-64
2023/08/01 11:31:37;;;;;;;2.35;0.70;;;;;;;;;;5014949;28;20049;-65
2023/08/01 11:34:03;;;;;;;2.00;0.70;;;;;;;;;;5013407;28;20033;-65
2023/08/01 11:36:29;;;;;;;2.58;1.13;;;;;;;;;;5009673;28;20124;-64
2023/08/01 11:38:59;;;;;;;3.55;1.10;;;;;;;;;;5012948;28;20045;-64
2023/08/01 11:41:27;;;;;;;2.30;0.82;;;;;;;;;;5015182;28;20418;-64
2023/08/01 11:43:54;;;;;;;1.10;0.55;;;;;;;;;;5008030;28;20480;-64
2023/08/01 11:46:21;;;;;;;1.67;0.50;;;;;;;;;;5007804;28;20525;-64
2023/08/01 11:48:48;;;;;;;4.32;0.90;;;;;;;;;;5013385;28;20054;-64
2023/08/01 11:51:14;;;;;;;2.55;0.60;;;;;;;;;;5013130;28;20411;-64
2023/08/01 11:53:40;;;;;;;1.35;0.70;;;;;;;;;;5009589;28;20581;-64
2023/08/01 11:56:06;;;;;;;1.65;0.55;;;;;;;;;;5010756;28;20221;-64
2023/08/01 11:58:33;;;;;;;1.17;0.55;;;;;;;;;;5010042;28;20334;-64
2023/08/01 12:01:03;;;;;;;0.60;0.43;;;;;;;;;;5005519;28;20563;-64
2023/08/01 12:03:29;;;;;;;1.30;0.88;;;;;;;;;;5012820;28;20042;-64
2023/08/01 12:06:07;;;;;;;0.80;0.35;;;;;;;;;;5007109;28;20395;-64
2023/08/01 12:08:33;;;;;;;1.00;0.40;;;;;;;;;;5007158;28;20065;-64
2023/08/01 12:10:59;;;;;;;2.05;0.60;;;;;;;;;;5006123;28;20056;-64
2023/08/01 12:13:26;;;;;;;1.95;0.88;;;;;;;;;;5004720;28;20049;-64
2023/08/01 12:15:53;;;;;;;2.10;0.88;;;;;;;;;;5012442;28;20412;-64
2023/08/01 12:18:29;;;;;;;2.03;0.80;;;;;;;;;;5016286;28;20045;-64
2023/08/01 12:20:55;;;;;;;1.83;0.90;;;;;;;;;;5015136;28;20044;-64
2023/08/01 12:23:21;;;;;;;3.35;0.93;;;;;;;;;;5015646;28;20527;-65
2023/08/01 12:25:47;;;;;;;1.90;0.70;;;;;;;;;;5012451;28;20045;-65
2023/08/01 12:28:14;;;;;;;1.92;0.65;;;;;;;;;;5010360;28;20120;-65
2023/08/01 12:30:41;;;;;;;2.80;1.10;;;;;;;;;;5014710;28;20079;-64
2023/08/01 12:33:07;;;;;;;1.48;0.70;;;;;;;;;;5017967;28;20527;-64
2023/08/01 12:35:34;;;;;;;2.17;0.80;;;;;;;;;;5012610;28;20049;-64
2023/08/01 12:37:59;;;;;;;1.23;0.80;;;;;;;;;;5015414;28;20045;-63
2023/08/01 12:40:26;;;;;;;1.45;0.40;;;;;;;;;;5012030;28;20046;-64
2023/08/01 12:42:52;;;;;;;2.47;0.98;;;;;;;;;;5013898;28;20450;-64
2023/08/01 12:45:18;;;;;;;1.60;0.80;;;;;;;;;;5013688;28;20080;-64
2023/08/01 12:47:44;;;;;;;2.63;0.80;;;;;;;;;;5013128;28;20543;-64
2023/08/01 12:50:10;;;;;;;3.55;1.05;;;;;;;;;;5011631;28;20096;-65
2023/08/01 12:52:36;;;;;;;2.08;1.00;;;;;;;;;;5012278;28;20546;-65
2023/08/01 12:55:02;;;;;;;0.65;0.57;;;;;;;;;;5011205;28;20884;-65
2023/08/01 12:57:28;;;;;;;1.50;0.60;;;;;;;;;;5012898;28;20588;-64
2023/08/01 12:59:54;;;;;;;0.57;0.40;;;;;;;;;;5010372;28;20037;-64
2023/08/01 13:02:20;;;;;;;1.10;0.50;;;;;;;;;;5010092;28;20041;-65
2023/08/01 13:04:46;;;;;;;1.90;0.70;;;;;;;;;;5019386;28;20099;-65
2023/08/01 13:07:12;;;;;;;2.25;0.82;;;;;;;;;;5018872;28;20499;-65
2023/08/01 13:09:38;;;;;;;1.23;0.55;;;;;;;;;;5013488;28;20088;-65
2023/08/01 13:12:04;;;;;;;4.18;1.20;;;;;;;;;;5009126;28;20064;-64
2023/08/01 13:14:31;;;;;;;2.47;1.02;;;;;;;;;;5013280;28;20033;-64
2023/08/01 13:16:59;;;;;;;5.20;1.10;;;;;;;;;;5010742;28;20188;-64
2023/08/01 13:19:25;;;;;;;2.00;0.80;;;;;;;;;;5004121;28;20424;-64
2023/08/01 13:21:51;;;;;;;3.60;1.33;;;;;;;;;;5015883;28;20045;-64
2023/08/01 13:24:17;;;;;;;5.15;1.45;;;;;;;;;;5004389;28;20045;-65
2023/08/01 13:26:43;;;;;;;4.10;1.00;;;;;;;;;;5013848;28;20041;-65
2023/08/01 13:29:09;;;;;;;3.30;1.08;;;;;;;;;;5018900;28;20041;-64
2023/08/01 13:31:35;;;;;;;3.10;1.05;;;;;;;;;;5015960;28;20051;-64
2023/08/01 13:34:01;;;;;;;3.63;1.17;;;;;;;;;;5019573;28;20733;-64
2023/08/01 13:36:27;;;;;;;2.47;1.13;;;;;;;;;;5019553;28;20657;-65
2023/08/01 13:38:53;;;;;;;4.50;1.20;;;;;;;;;;5016433;28;20127;-65
2023/08/01 13:41:19;;;;;;;4.35;1.33;;;;;;;;;;5011512;28;20068;-65
2023/08/01 13:43:45;;;;;;;2.28;1.00;;;;;;;;;;5018787;28;20084;-65
2023/08/01 13:46:15;;;;;;;2.00;0.60;;;;;;;;;;5019412;28;20025;-65
2023/08/01 13:48:42;;;;;;;0.80;0.60;;;;;;;;;;5018518;28;20537;-65
2023/08/01 13:51:08;;;;;;;0.60;0.40;;;;;;;;;;5011024;28;20037;-65
2023/08/01 13:53:34;;;;;;;0.55;0.40;;;;;;;;;;5013426;28;20049;-65
2023/08/01 13:56:00;;;;;;;1.52;0.68;;;;;;;;;;5015279;28;20054;-65
2023/08/01 13:58:26;;;;;;;1.30;0.40;;;;;;;;;;5011964;28;20107;-65
2023/08/01 14:00:52;;;;;;;1.58;0.60;;;;;;;;;;5018026;28;20526;-65
2023/08/01 14:03:18;;;;;;;1.58;0.52;;;;;;;;;;5015564;28;20038;-65
2023/08/01 14:05:44;;;;;;;1.85;0.90;;;;;;;;;;5012334;28;20038;-65
2023/08/01 14:08:10;;;;;;;1.30;0.40;;;;;;;;;;5015197;28;20030;-65
2023/08/01 14:10:37;;;;;;;3.00;0.93;;;;;;;;;;5020469;28;20042;-65
2023/08/01 14:13:03;;;;;;;1.38;0.60;;;;;;;;;;5014469;28;20107;-65
2023/08/01 14:15:29;;;;;;;1.48;0.68;;;;;;;;;;5014285;28;20073;-65
2023/08/01 14:17:55;;;;;;;3.50;0.75;;;;;;;;;;5015986;28;20041;-65
2023/08/01 14:20:21;;;;;;;1.38;0.68;;;;;;;;;;5015774;28;20368;-65
2023/08/01 14:22:47;;;;;;;1.00;0.60;;;;;;;;;;5009606;28;20100;-65
2023/08/01 14:25:13;;;;;;;0.70;0.50;;;;;;;;;;5014975;28;20597;-65
2023/08/01 14:27:39;;;;;;;2.20;0.70;;;;;;;;;;5016841;28;20042;-64
2023/08/01 14:30:06;;;;;;;3.05;0.43;;;;;;;;;;5013864;28;20385;-65
2023/08/01 14:32:32;;;;;;;0.85;0.40;;;;;;;;;;5014756;28;20037;-65
2023/08/01 14:34:58;;;;;;;4.82;0.68;;;;;;;;;;5009766;28;20376;-65
2023/08/01 14:37:25;;;;;;;2.30;0.75;;;;;;;;;;5016252;28;20044;-65
2023/08/01 14:39:52;;;;;;;1.27;0.60;;;;;;;;;;5010976;28;20108;-65